Svetoslava — V3RH5 — position and weather

sailwx.info

Track history (hours):
 
Tides and Currents Weather Stations Pressure Air Temp Water Temp Dewpoint Dewpoint Depression Visibility Wind Speed Wind Dir Waves Ship Positions

Svetoslava

Last reported at 2014-Jul-18 23:33 UTC. Time now 2014-Jul-25 01:39 UTC.
Position N 39°46' E 025°41'.

Length 138 m; draft 3.6 m.

Type: Cargo ship. MMSI: 312406000.

Date/timePositionNaut miles runAvg speedWind from/ knotsBaromVisibWave heightAir tempDewpointWater temp
2014-Jul-18 23:33N 39°46' E 025°41'7 6.9
2014-Jul-18 22:32N 39°51' E 025°48'7 7.1
2014-Jul-18 21:33N 39°55' E 025°54'7 6.8
2014-Jul-18 20:33N 39°60' E 026°01'  
2014-Jul-14 08:26N 44°20' E 034°11'6 6.7
2014-Jul-14 07:31N 44°23' E 034°18'6 6.4
2014-Jul-14 06:34N 44°26' E 034°26'6 6.3
2014-Jul-14 05:34N 44°28' E 034°34'6 6.3
2014-Jul-14 04:33N 44°30' E 034°43'7 6.4
2014-Jul-14 03:32N 44°31' E 034°52'6 6.4
2014-Jul-14 02:34N 44°34' E 034°60'7 6.5
2014-Jul-14 01:34N 44°37' E 035°08'7 6.3
2014-Jul-14 00:32N 44°40' E 035°16'6 6.3
2014-Jul-13 23:30N 44°41' E 035°25'  
Track history (hours):
 
Tides and Currents Weather Stations Pressure Air Temp Water Temp Dewpoint Dewpoint Depression Visibility Wind Speed Wind Dir Waves Ship Positions

Svetoslava

Last reported at 2014-Jul-18 23:33 UTC. Time now 2014-Jul-25 01:39 UTC.
Position N 39°46' E 025°41'.

Length 138 m; draft 3.6 m.

Type: Cargo ship. MMSI: 312406000.

Date/timePositionNaut miles runAvg speedWind from/ knotsBaromVisibWave heightAir tempDewpointWater temp
2014-Jul-18 23:33N 39°46' E 025°41'7 6.9
2014-Jul-18 22:32N 39°51' E 025°48'7 7.1
2014-Jul-18 21:33N 39°55' E 025°54'7 6.8
2014-Jul-18 20:33N 39°60' E 026°01'  
2014-Jul-14 08:26N 44°20' E 034°11'6 6.7
2014-Jul-14 07:31N 44°23' E 034°18'6 6.4
2014-Jul-14 06:34N 44°26' E 034°26'6 6.3
2014-Jul-14 05:34N 44°28' E 034°34'6 6.3
2014-Jul-14 04:33N 44°30' E 034°43'7 6.4
2014-Jul-14 03:32N 44°31' E 034°52'6 6.4
2014-Jul-14 02:34N 44°34' E 034°60'7 6.5
2014-Jul-14 01:34N 44°37' E 035°08'7 6.3
2014-Jul-14 00:32N 44°40' E 035°16'6 6.3
2014-Jul-13 23:30N 44°41' E 035°25'  

Dump ship's entire track history